This is the latest recevied weather packets stored in our database for station/object IU2BEE-13. If no packets are shown the sender has not sent any weather packets the latest 10 day(s).
| Time | Temp. | Humidity | Pressure | Rain* | Wind** | Luminosity | Snow |
|---|---|---|---|---|---|---|---|
| 1787576403 | 26.11° C | 46% | 1024 hPa | 0 mm | - | - | - |
| 1787576103 | 26.67° C | 47% | 1024.2 hPa | 0 mm | - | - | - |
| 1787575803 | 26.67° C | 48% | 1024.1 hPa | 0 mm | - | - | - |
| 1787575503 | 26.11° C | 50% | 1024.3 hPa | 0 mm | - | - | - |
| 1787575203 | 25.56° C | 50% | 1024.1 hPa | 0 mm | - | - | - |
| 1787574903 | 25.56° C | 50% | 1024 hPa | 0 mm | - | - | - |
| 1787574603 | 26.11° C | 46% | 1024.2 hPa | 0 mm | - | - | - |
| 1787574303 | 26.67° C | 46% | 1024.2 hPa | 0 mm | - | - | - |
| 1787574003 | 26.67° C | 48% | 1024.3 hPa | 0 mm | - | - | - |
| 1787573703 | 26.11° C | 47% | 1024.3 hPa | 0 mm | - | - | - |
| 1787573403 | 26.11° C | 45% | 1024.2 hPa | 0 mm | - | - | - |
| 1787573103 | 27.78° C | 41% | 1024.3 hPa | 0 mm | - | - | - |
| 1787572803 | 27.78° C | 41% | 1024.4 hPa | 0 mm | - | - | - |
| 1787572503 | 27.22° C | 43% | 1024.4 hPa | 0 mm | - | - | - |
| 1787572203 | 27.78° C | 40% | 1024.3 hPa | 0 mm | - | - | - |
| 1787571903 | 27.22° C | 45% | 1024.4 hPa | 0 mm | - | - | - |
| 1787571603 | 26.67° C | 45% | 1024.4 hPa | 0 mm | - | - | - |
| 1787571303 | 26.67° C | 45% | 1024.6 hPa | 0 mm | - | - | - |
| 1787571003 | 27.22° C | 43% | 1024.4 hPa | 0 mm | - | - | - |
| 1787570703 | 27.22° C | 45% | 1024.4 hPa | 0 mm | - | - | - |
| 1787570403 | 26.67° C | 47% | 1024.5 hPa | 0 mm | - | - | - |
| 1787570103 | 26.67° C | 46% | 1024.5 hPa | 0 mm | - | - | - |
| 1787569803 | 26.67° C | 45% | 1024.6 hPa | 0 mm | - | - | - |
| 1787569503 | 26.67° C | 45% | 1024.8 hPa | 0 mm | - | - | - |
| 1787569203 | 26.67° C | 46% | 1024.6 hPa | 0 mm | - | - | - |
* Rain latest hour (hover to see other rain measurements)
** Current wind speed in m/s (hover to see current wind gust speed)